Time;durP1;ratioP1;P1;durP2;ratioP2;P2;SDS_P1;SDS_P2;PMS_P1;PMS_P2;Temp;Humidity;BMP_temperature;BMP_pressure;BME280_temperature;BME280_humidity;BME280_pressure;Samples;Min_cycle;Max_cycle;Signal;HPM_P1;HPM_P2
2022/10/20 00:02:23;;;;;;;22.35;7.45;;;;;;;;;;5007104;28;20034;-44
2022/10/20 00:04:48;;;;;;;22.15;7.28;;;;;;;;;;5007116;28;20159;-45
2022/10/20 00:07:13;;;;;;;29.48;7.82;;;;;;;;;;5008422;28;20084;-44
2022/10/20 00:09:39;;;;;;;25.58;7.68;;;;;;;;;;5005076;28;20037;-45
2022/10/20 00:12:04;;;;;;;24.77;7.68;;;;;;;;;;5005177;28;20372;-46
2022/10/20 00:14:30;;;;;;;19.20;7.72;;;;;;;;;;5004245;28;20049;-46
2022/10/20 00:16:55;;;;;;;30.13;8.35;;;;;;;;;;5005898;28;20041;-44
2022/10/20 00:19:20;;;;;;;25.38;7.28;;;;;;;;;;5008189;28;20056;-46
2022/10/20 00:21:46;;;;;;;18.40;7.22;;;;;;;;;;5011316;28;20046;-43
2022/10/20 00:24:11;;;;;;;22.23;7.78;;;;;;;;;;5010496;28;20054;-47
2022/10/20 00:26:36;;;;;;;21.48;7.95;;;;;;;;;;5009998;28;20033;-45
2022/10/20 00:29:02;;;;;;;20.75;6.82;;;;;;;;;;5011472;28;21222;-49
2022/10/20 00:31:28;;;;;;;22.58;8.15;;;;;;;;;;5011127;28;20028;-45
2022/10/20 00:33:53;;;;;;;27.38;8.27;;;;;;;;;;5010559;28;20049;-48
2022/10/20 00:36:21;;;;;;;21.83;8.05;;;;;;;;;;5010336;28;20076;-51
2022/10/20 00:38:47;;;;;;;18.98;8.02;;;;;;;;;;5011454;28;20049;-48
2022/10/20 00:41:18;;;;;;;21.85;8.20;;;;;;;;;;5011914;28;20038;-47
2022/10/20 00:43:44;;;;;;;20.85;7.88;;;;;;;;;;5011205;28;20049;-48
2022/10/20 00:46:14;;;;;;;27.10;8.13;;;;;;;;;;5008743;28;20029;-44
2022/10/20 00:48:41;;;;;;;21.73;7.72;;;;;;;;;;5009403;28;20069;-44
2022/10/20 00:51:07;;;;;;;26.13;7.13;;;;;;;;;;5010614;28;20030;-46
2022/10/20 00:53:33;;;;;;;23.95;7.07;;;;;;;;;;5010741;28;20021;-44
2022/10/20 00:55:59;;;;;;;19.00;7.05;;;;;;;;;;5009790;28;20030;-44
2022/10/20 00:58:25;;;;;;;22.30;7.40;;;;;;;;;;5007087;28;20036;-44
2022/10/20 01:00:55;;;;;;;25.10;7.65;;;;;;;;;;5010668;28;20033;-44
2022/10/20 01:03:29;;;;;;;26.27;7.68;;;;;;;;;;5011102;28;20033;-43
2022/10/20 01:05:54;;;;;;;31.58;7.97;;;;;;;;;;5007370;28;20560;-44
2022/10/20 01:08:20;;;;;;;18.05;7.63;;;;;;;;;;5008314;28;20054;-44
2022/10/20 01:11:14;;;;;;;22.92;7.82;;;;;;;;;;5008843;28;20018;-44
2022/10/20 01:14:07;;;;;;;23.98;7.60;;;;;;;;;;4950965;28;20512;-43
2022/10/20 01:16:32;;;;;;;21.98;7.78;;;;;;;;;;4948464;28;20039;-44
2022/10/20 01:19:17;;;;;;;18.30;7.78;;;;;;;;;;4948479;28;20050;-46
2022/10/20 01:21:59;;;;;;;20.88;7.30;;;;;;;;;;4950699;28;20043;-45
2022/10/20 01:24:31;;;;;;;18.73;7.80;;;;;;;;;;4945830;28;20765;-43
2022/10/20 01:27:17;;;;;;;24.67;7.47;;;;;;;;;;4947856;28;20039;-43
2022/10/20 01:29:53;;;;;;;25.75;8.15;;;;;;;;;;4947875;28;20091;-44
2022/10/20 01:32:31;;;;;;;21.35;8.00;;;;;;;;;;4964260;28;20162;-44
2022/10/20 01:35:33;;;;;;;28.38;7.90;;;;;;;;;;4950125;28;20190;-43
2022/10/20 01:38:14;;;;;;;24.63;7.75;;;;;;;;;;4949866;28;20523;-43
2022/10/20 01:40:51;;;;;;;25.08;7.93;;;;;;;;;;4948536;28;20040;-44
2022/10/20 01:43:19;;;;;;;21.80;7.55;;;;;;;;;;4947828;28;20721;-45
2022/10/20 01:45:47;;;;;;;19.90;7.20;;;;;;;;;;4946720;28;20514;-44
2022/10/20 01:48:16;;;;;;;23.02;6.95;;;;;;;;;;4947535;28;20118;-43
2022/10/20 01:50:42;;;;;;;19.38;7.70;;;;;;;;;;4979399;28;20060;-45
2022/10/20 01:53:08;;;;;;;21.35;7.82;;;;;;;;;;5008693;28;20026;-44
2022/10/20 01:55:35;;;;;;;20.05;6.50;;;;;;;;;;5007937;28;20037;-44
2022/10/20 01:58:24;;;;;;;23.42;7.50;;;;;;;;;;5009484;28;20441;-45
2022/10/20 02:00:52;;;;;;;19.20;7.13;;;;;;;;;;5009314;28;20042;-43
2022/10/20 02:03:40;;;;;;;18.70;6.97;;;;;;;;;;5008127;28;20451;-44
2022/10/20 02:06:20;;;;;;;16.80;6.97;;;;;;;;;;4987233;28;20057;-44
2022/10/20 02:08:49;;;;;;;14.60;6.63;;;;;;;;;;4990969;28;20129;-45
2022/10/20 02:11:25;;;;;;;13.55;6.05;;;;;;;;;;5009824;28;20101;-44
2022/10/20 02:13:51;;;;;;;19.65;7.18;;;;;;;;;;5010424;28;20044;-44
2022/10/20 02:16:23;;;;;;;20.52;7.20;;;;;;;;;;5009615;28;20022;-46
2022/10/20 02:18:49;;;;;;;30.17;8.30;;;;;;;;;;5009202;28;20042;-44
2022/10/20 02:21:15;;;;;;;20.10;7.53;;;;;;;;;;5008904;28;20029;-44
2022/10/20 02:23:44;;;;;;;23.48;7.47;;;;;;;;;;5007339;28;20053;-44
2022/10/20 02:26:13;;;;;;;15.68;7.47;;;;;;;;;;5006424;28;20029;-44
2022/10/20 02:28:43;;;;;;;16.42;6.50;;;;;;;;;;5008630;28;20022;-44
2022/10/20 02:31:09;;;;;;;20.92;7.57;;;;;;;;;;5009251;28;20438;-44
2022/10/20 02:33:35;;;;;;;23.98;7.10;;;;;;;;;;5005579;28;20022;-44
2022/10/20 02:36:04;;;;;;;18.90;7.65;;;;;;;;;;5007905;28;20483;-43
2022/10/20 02:38:29;;;;;;;16.92;7.05;;;;;;;;;;5004316;28;20080;-44
2022/10/20 02:40:55;;;;;;;19.38;7.82;;;;;;;;;;5008681;28;20041;-43
2022/10/20 02:43:20;;;;;;;15.85;7.60;;;;;;;;;;5006383;28;20066;-44
2022/10/20 02:45:45;;;;;;;23.13;7.00;;;;;;;;;;5007955;28;20034;-44
2022/10/20 02:48:11;;;;;;;19.15;6.82;;;;;;;;;;5009915;28;20449;-44
2022/10/20 02:50:37;;;;;;;15.80;6.53;;;;;;;;;;5005499;28;20034;-44
2022/10/20 02:53:04;;;;;;;21.70;6.80;;;;;;;;;;5009400;28;20027;-44
2022/10/20 02:55:29;;;;;;;19.10;6.22;;;;;;;;;;5009985;28;20478;-44
2022/10/20 02:57:55;;;;;;;20.20;6.68;;;;;;;;;;5007496;28;20120;-43
2022/10/20 03:00:21;;;;;;;15.88;6.68;;;;;;;;;;5007711;28;20046;-44
2022/10/20 03:02:47;;;;;;;17.00;7.22;;;;;;;;;;5008954;28;20030;-46
2022/10/20 03:05:12;;;;;;;34.58;7.45;;;;;;;;;;5004293;28;20574;-44
2022/10/20 03:07:38;;;;;;;23.25;7.20;;;;;;;;;;5009210;28;20026;-44
2022/10/20 03:10:04;;;;;;;15.80;7.35;;;;;;;;;;5004770;28;20096;-43
2022/10/20 03:12:29;;;;;;;16.33;7.13;;;;;;;;;;5006666;28;20049;-43
2022/10/20 03:14:54;;;;;;;15.80;7.28;;;;;;;;;;5008595;28;20042;-44
2022/10/20 03:17:20;;;;;;;20.98;7.72;;;;;;;;;;5006831;28;20033;-44
2022/10/20 03:19:45;;;;;;;22.15;7.30;;;;;;;;;;5007247;28;20570;-45
2022/10/20 03:22:10;;;;;;;19.60;7.10;;;;;;;;;;5009052;28;20025;-46
2022/10/20 03:24:36;;;;;;;19.27;6.90;;;;;;;;;;5005376;28;20176;-45
2022/10/20 03:27:01;;;;;;;19.38;7.50;;;;;;;;;;5007904;28;20021;-44
2022/10/20 03:29:26;;;;;;;14.75;8.73;;;;;;;;;;5006188;28;22893;-44
2022/10/20 03:31:52;;;;;;;22.40;7.88;;;;;;;;;;5006218;28;20034;-44
2022/10/20 03:34:17;;;;;;;18.42;7.93;;;;;;;;;;5007329;28;20049;-44
2022/10/20 03:36:42;;;;;;;16.58;8.02;;;;;;;;;;5007118;28;20398;-43
2022/10/20 03:39:08;;;;;;;21.05;8.07;;;;;;;;;;5006723;28;20049;-44
2022/10/20 03:41:33;;;;;;;14.73;7.68;;;;;;;;;;5006762;28;20021;-44
2022/10/20 03:43:58;;;;;;;16.02;7.18;;;;;;;;;;5007079;28;20045;-45
2022/10/20 03:46:24;;;;;;;20.50;7.93;;;;;;;;;;5004773;28;20450;-44
2022/10/20 03:48:49;;;;;;;13.93;7.38;;;;;;;;;;5005172;28;20053;-46
2022/10/20 03:51:14;;;;;;;14.52;6.75;;;;;;;;;;5006196;28;20731;-44
2022/10/20 03:53:40;;;;;;;11.75;7.05;;;;;;;;;;5007927;28;20096;-44
2022/10/20 03:56:08;;;;;;;21.88;7.78;;;;;;;;;;5008450;28;20428;-46
2022/10/20 03:58:33;;;;;;;21.17;7.78;;;;;;;;;;5008517;28;20076;-46
2022/10/20 04:00:59;;;;;;;13.80;7.72;;;;;;;;;;5004528;28;20046;-47
2022/10/20 04:03:24;;;;;;;17.40;7.75;;;;;;;;;;5007417;28;20025;-44
2022/10/20 04:05:50;;;;;;;17.45;8.00;;;;;;;;;;5006509;28;20293;-43
2022/10/20 04:08:15;;;;;;;14.50;7.93;;;;;;;;;;5005456;28;20084;-44
2022/10/20 04:10:40;;;;;;;18.85;9.05;;;;;;;;;;5006166;28;20038;-45
2022/10/20 04:13:06;;;;;;;17.35;8.30;;;;;;;;;;5006195;28;20072;-46
2022/10/20 04:15:31;;;;;;;14.15;7.75;;;;;;;;;;5003702;28;20147;-47
2022/10/20 04:17:57;;;;;;;15.95;7.93;;;;;;;;;;5002198;28;20061;-45
2022/10/20 04:20:22;;;;;;;20.80;7.45;;;;;;;;;;5004582;28;20600;-44
2022/10/20 04:22:48;;;;;;;15.60;7.50;;;;;;;;;;5001002;28;20497;-44
2022/10/20 04:25:13;;;;;;;14.18;8.02;;;;;;;;;;5007237;28;20037;-46
2022/10/20 04:27:39;;;;;;;17.13;7.43;;;;;;;;;;5005957;28;20026;-47
2022/10/20 04:30:06;;;;;;;19.45;7.45;;;;;;;;;;5004493;28;20053;-48
2022/10/20 04:32:31;;;;;;;15.75;7.82;;;;;;;;;;5007665;28;20030;-44
2022/10/20 04:34:57;;;;;;;16.33;7.85;;;;;;;;;;5006171;28;20398;-44
2022/10/20 04:37:22;;;;;;;14.38;7.78;;;;;;;;;;5001731;28;20037;-44
2022/10/20 04:39:49;;;;;;;26.55;7.85;;;;;;;;;;5007396;28;20096;-46
2022/10/20 04:42:16;;;;;;;17.50;8.55;;;;;;;;;;5002162;28;20050;-44
2022/10/20 04:44:41;;;;;;;17.45;9.52;;;;;;;;;;5006225;28;20048;-44
2022/10/20 04:47:06;;;;;;;17.20;8.23;;;;;;;;;;5004844;28;20030;-44
2022/10/20 04:49:32;;;;;;;17.13;7.93;;;;;;;;;;5005866;28;20034;-47
2022/10/20 04:51:57;;;;;;;14.68;7.85;;;;;;;;;;5007225;28;20483;-45
2022/10/20 04:54:22;;;;;;;24.48;8.02;;;;;;;;;;5005570;28;20057;-44
2022/10/20 04:56:48;;;;;;;17.73;8.00;;;;;;;;;;5007138;28;20030;-47
2022/10/20 04:59:13;;;;;;;17.58;8.00;;;;;;;;;;5005592;28;20045;-46
2022/10/20 05:01:38;;;;;;;16.17;7.72;;;;;;;;;;5005653;28;20096;-44
2022/10/20 05:04:04;;;;;;;17.05;7.45;;;;;;;;;;5007328;28;20125;-44
2022/10/20 05:06:31;;;;;;;14.40;7.35;;;;;;;;;;5004901;28;20062;-44
2022/10/20 05:08:59;;;;;;;16.10;7.50;;;;;;;;;;5005164;28;20041;-45
2022/10/20 05:11:27;;;;;;;18.80;7.82;;;;;;;;;;5010502;28;20036;-44
2022/10/20 05:13:52;;;;;;;17.10;7.38;;;;;;;;;;5009480;28;20100;-44
2022/10/20 05:16:18;;;;;;;15.38;8.52;;;;;;;;;;5009266;28;20030;-44
2022/10/20 05:18:44;;;;;;;17.02;7.28;;;;;;;;;;5009510;28;20042;-45
2022/10/20 05:21:16;;;;;;;13.82;7.03;;;;;;;;;;5005048;28;20498;-46
2022/10/20 05:23:42;;;;;;;19.00;7.35;;;;;;;;;;4999596;28;20104;-45
2022/10/20 05:26:13;;;;;;;15.85;8.13;;;;;;;;;;5007583;28;20042;-44
2022/10/20 05:28:42;;;;;;;15.60;7.38;;;;;;;;;;4999594;28;20538;-44
2022/10/20 05:31:08;;;;;;;13.48;6.82;;;;;;;;;;5004890;28;20746;-44
2022/10/20 05:33:34;;;;;;;16.10;7.15;;;;;;;;;;5007268;28;20022;-46
2022/10/20 05:35:59;;;;;;;15.75;6.90;;;;;;;;;;5007165;28;20486;-45
2022/10/20 05:38:25;;;;;;;11.65;6.97;;;;;;;;;;5004087;28;20038;-44
2022/10/20 05:40:50;;;;;;;10.85;6.60;;;;;;;;;;5001245;28;20040;-43
2022/10/20 05:43:15;;;;;;;14.98;6.85;;;;;;;;;;5004842;28;20034;-47
2022/10/20 05:45:41;;;;;;;12.65;6.35;;;;;;;;;;5002120;28;20495;-45
2022/10/20 05:48:06;;;;;;;16.48;7.32;;;;;;;;;;5015867;28;20029;-44
2022/10/20 05:50:32;;;;;;;14.70;7.03;;;;;;;;;;5003240;28;20088;-46
2022/10/20 05:52:57;;;;;;;16.63;6.65;;;;;;;;;;5005339;28;20479;-43
2022/10/20 05:55:23;;;;;;;21.67;6.75;;;;;;;;;;4999753;28;20042;-45
2022/10/20 05:57:49;;;;;;;11.95;5.97;;;;;;;;;;5003697;28;20041;-44
2022/10/20 06:00:17;;;;;;;10.07;6.30;;;;;;;;;;4999779;28;20049;-48
2022/10/20 06:02:42;;;;;;;20.95;6.82;;;;;;;;;;5005447;28;20402;-44
2022/10/20 06:05:08;;;;;;;12.13;6.35;;;;;;;;;;5008437;28;20030;-44
2022/10/20 06:07:33;;;;;;;11.82;6.47;;;;;;;;;;5003034;28;20038;-43
2022/10/20 06:09:59;;;;;;;10.85;6.75;;;;;;;;;;5007478;28;20034;-43
2022/10/20 06:12:24;;;;;;;12.00;6.03;;;;;;;;;;5008453;28;20036;-47
2022/10/20 06:14:49;;;;;;;13.32;5.90;;;;;;;;;;4996982;28;20487;-46
2022/10/20 06:17:15;;;;;;;14.38;6.50;;;;;;;;;;5003298;28;20483;-45
2022/10/20 06:19:40;;;;;;;10.77;6.43;;;;;;;;;;5006891;28;20050;-45
2022/10/20 06:22:05;;;;;;;8.32;5.63;;;;;;;;;;5010251;28;20057;-46
2022/10/20 06:24:31;;;;;;;17.95;6.30;;;;;;;;;;5007539;28;20529;-49
2022/10/20 06:26:56;;;;;;;13.80;6.13;;;;;;;;;;5006783;28;20101;-44
2022/10/20 06:29:21;;;;;;;12.93;5.43;;;;;;;;;;5007316;28;20053;-44
2022/10/20 06:31:49;;;;;;;10.32;6.18;;;;;;;;;;5007968;28;20087;-43
2022/10/20 06:34:18;;;;;;;8.73;5.88;;;;;;;;;;5007302;28;20064;-44
2022/10/20 06:36:44;;;;;;;10.25;5.47;;;;;;;;;;5008813;28;20029;-44
2022/10/20 06:39:21;;;;;;;10.48;5.82;;;;;;;;;;5009360;28;20060;-44
2022/10/20 06:41:51;;;;;;;9.20;5.82;;;;;;;;;;5005699;28;20566;-43
2022/10/20 06:44:21;;;;;;;8.25;5.57;;;;;;;;;;5004560;28;20026;-48
2022/10/20 06:46:47;;;;;;;10.80;5.80;;;;;;;;;;5008823;28;20026;-44
2022/10/20 06:49:13;;;;;;;16.90;5.68;;;;;;;;;;5008868;28;20068;-45
2022/10/20 06:51:39;;;;;;;13.65;5.47;;;;;;;;;;5010219;28;20029;-49
2022/10/20 06:54:06;;;;;;;11.65;5.57;;;;;;;;;;5009496;28;20564;-48
2022/10/20 06:56:33;;;;;;;6.50;5.60;;;;;;;;;;5008295;28;20115;-46
2022/10/20 06:59:00;;;;;;;11.88;5.65;;;;;;;;;;5006499;28;20044;-50
2022/10/20 07:01:28;;;;;;;13.10;5.22;;;;;;;;;;5001368;28;20129;-44
2022/10/20 07:03:56;;;;;;;12.93;5.85;;;;;;;;;;5007576;28;20053;-44
2022/10/20 07:06:27;;;;;;;6.75;4.90;;;;;;;;;;5008716;28;20046;-43
2022/10/20 07:08:55;;;;;;;11.73;5.85;;;;;;;;;;5009945;28;20034;-44
2022/10/20 07:11:23;;;;;;;15.23;5.78;;;;;;;;;;5008119;28;20100;-43
2022/10/20 07:13:48;;;;;;;14.93;5.22;;;;;;;;;;5005401;28;20027;-44
2022/10/20 07:16:17;;;;;;;9.85;5.32;;;;;;;;;;5007728;28;20053;-43
2022/10/20 07:18:42;;;;;;;7.22;5.15;;;;;;;;;;5009864;28;20056;-44
2022/10/20 07:21:11;;;;;;;13.02;5.13;;;;;;;;;;5006719;28;20518;-44
2022/10/20 07:23:37;;;;;;;13.23;4.97;;;;;;;;;;5005337;28;20091;-44
2022/10/20 07:26:03;;;;;;;10.20;4.70;;;;;;;;;;5006338;28;20034;-45
2022/10/20 07:28:29;;;;;;;10.05;5.13;;;;;;;;;;5008095;28;20021;-46
2022/10/20 07:30:55;;;;;;;11.85;4.50;;;;;;;;;;5006337;28;20954;-46
2022/10/20 07:33:20;;;;;;;8.95;4.90;;;;;;;;;;5005095;28;20660;-46
2022/10/20 07:35:47;;;;;;;15.55;5.38;;;;;;;;;;5007050;28;20030;-44
2022/10/20 07:38:13;;;;;;;5.68;4.32;;;;;;;;;;5007492;28;20041;-44
2022/10/20 07:40:38;;;;;;;6.32;3.95;;;;;;;;;;5006857;28;20032;-44
2022/10/20 07:43:03;;;;;;;6.68;3.70;;;;;;;;;;5005600;28;20085;-45
2022/10/20 07:45:29;;;;;;;5.70;4.10;;;;;;;;;;5004477;28;20506;-45
2022/10/20 07:47:54;;;;;;;8.55;4.35;;;;;;;;;;5007330;28;20491;-46
2022/10/20 07:50:19;;;;;;;10.90;4.38;;;;;;;;;;5007536;28;20092;-45
2022/10/20 07:52:49;;;;;;;12.43;4.10;;;;;;;;;;5007973;28;20122;-45
2022/10/20 07:55:15;;;;;;;12.80;4.05;;;;;;;;;;5007630;28;20029;-46
2022/10/20 07:57:40;;;;;;;10.95;4.80;;;;;;;;;;5005521;28;20045;-45
2022/10/20 08:00:06;;;;;;;13.88;4.50;;;;;;;;;;5007160;28;20034;-47
2022/10/20 08:02:31;;;;;;;7.13;4.47;;;;;;;;;;5006889;28;20454;-44
2022/10/20 08:04:57;;;;;;;6.18;4.20;;;;;;;;;;5008217;28;20141;-44
2022/10/20 08:07:22;;;;;;;14.95;4.40;;;;;;;;;;5005174;28;20514;-45
2022/10/20 08:09:47;;;;;;;11.20;4.45;;;;;;;;;;5006437;28;20394;-44
2022/10/20 08:12:13;;;;;;;7.68;4.10;;;;;;;;;;5006489;28;20034;-44
2022/10/20 08:14:38;;;;;;;9.48;4.45;;;;;;;;;;5005863;28;20030;-44
2022/10/20 08:17:04;;;;;;;10.00;4.22;;;;;;;;;;5006216;28;20042;-46
2022/10/20 08:19:30;;;;;;;9.15;5.28;;;;;;;;;;5006883;28;20108;-44
2022/10/20 08:21:56;;;;;;;10.05;4.20;;;;;;;;;;5004926;28;20068;-44
2022/10/20 08:24:21;;;;;;;10.40;4.55;;;;;;;;;;5007789;28;20058;-46
2022/10/20 08:26:46;;;;;;;8.35;4.10;;;;;;;;;;5004010;28;20033;-44
2022/10/20 08:29:12;;;;;;;9.70;4.97;;;;;;;;;;5007258;28;20052;-45
2022/10/20 08:31:38;;;;;;;8.77;4.07;;;;;;;;;;5003451;28;20058;-43
2022/10/20 08:34:04;;;;;;;8.90;4.15;;;;;;;;;;5005368;28;20022;-44
2022/10/20 08:36:29;;;;;;;12.40;5.22;;;;;;;;;;5007753;28;20462;-44
2022/10/20 08:38:58;;;;;;;9.95;4.85;;;;;;;;;;5007177;28;20467;-44
2022/10/20 08:41:35;;;;;;;13.95;4.50;;;;;;;;;;5003288;28;20048;-44
2022/10/20 08:44:03;;;;;;;10.30;4.68;;;;;;;;;;5005801;28;20034;-44
2022/10/20 08:46:32;;;;;;;8.45;4.90;;;;;;;;;;5006679;28;20402;-44
2022/10/20 08:48:58;;;;;;;12.45;4.70;;;;;;;;;;5006526;28;20049;-46
2022/10/20 08:51:29;;;;;;;9.95;4.50;;;;;;;;;;5009304;28;20046;-44
2022/10/20 08:53:57;;;;;;;7.78;4.72;;;;;;;;;;5008257;28;20041;-46
2022/10/20 08:56:25;;;;;;;9.93;4.78;;;;;;;;;;5008742;28;20033;-43
2022/10/20 08:58:50;;;;;;;13.60;4.93;;;;;;;;;;5008038;28;20104;-44
2022/10/20 09:01:23;;;;;;;15.43;5.55;;;;;;;;;;5010838;28;20149;-44
2022/10/20 09:03:54;;;;;;;12.05;4.57;;;;;;;;;;5007247;28;20037;-44
2022/10/20 09:06:20;;;;;;;6.65;4.95;;;;;;;;;;5007102;28;20459;-44
2022/10/20 09:08:46;;;;;;;11.82;4.88;;;;;;;;;;5008797;28;20052;-45
2022/10/20 09:11:23;;;;;;;8.90;4.78;;;;;;;;;;5008118;28;20442;-45
2022/10/20 09:13:48;;;;;;;15.10;4.43;;;;;;;;;;5009735;28;20084;-43
2022/10/20 09:16:26;;;;;;;8.57;4.68;;;;;;;;;;5009782;28;20034;-44
2022/10/20 09:18:57;;;;;;;10.45;5.00;;;;;;;;;;5009605;28;20117;-44
2022/10/20 09:21:23;;;;;;;15.13;4.95;;;;;;;;;;5009789;28;20050;-49
2022/10/20 09:23:55;;;;;;;17.63;5.50;;;;;;;;;;5007693;28;20091;-43
2022/10/20 09:26:29;;;;;;;9.73;4.95;;;;;;;;;;5008634;28;20056;-44
2022/10/20 09:29:13;;;;;;;8.98;5.07;;;;;;;;;;5008549;28;20036;-44
2022/10/20 09:31:51;;;;;;;9.07;4.20;;;;;;;;;;5008915;28;20116;-44
2022/10/20 09:34:25;;;;;;;17.65;5.38;;;;;;;;;;5009749;28;20032;-44
2022/10/20 09:36:56;;;;;;;17.98;5.70;;;;;;;;;;5008777;28;20053;-43
2022/10/20 09:39:26;;;;;;;13.60;5.13;;;;;;;;;;5005514;28;20164;-45
2022/10/20 09:42:02;;;;;;;34.78;5.53;;;;;;;;;;5005658;28;20061;-45
2022/10/20 09:44:31;;;;;;;21.80;5.72;;;;;;;;;;5009542;28;20029;-44
2022/10/20 09:46:57;;;;;;;13.50;5.07;;;;;;;;;;5008590;28;20411;-44
2022/10/20 09:49:26;;;;;;;17.20;6.47;;;;;;;;;;5009291;28;20029;-44
2022/10/20 09:51:52;;;;;;;18.73;5.43;;;;;;;;;;5008086;28;20049;-45
2022/10/20 09:54:21;;;;;;;11.40;5.30;;;;;;;;;;5008907;28;20040;-45
2022/10/20 09:56:48;;;;;;;19.38;6.03;;;;;;;;;;5004836;28;20549;-44
2022/10/20 09:59:34;;;;;;;15.18;5.65;;;;;;;;;;5008671;28;20049;-44
2022/10/20 10:02:27;;;;;;;15.07;5.18;;;;;;;;;;5008488;28;20053;-44
2022/10/20 10:05:10;;;;;;;14.02;5.18;;;;;;;;;;5002565;28;20034;-46
2022/10/20 10:07:36;;;;;;;12.90;5.20;;;;;;;;;;5008855;28;20102;-45
2022/10/20 10:10:06;;;;;;;16.75;4.70;;;;;;;;;;5009664;28;20695;-45
2022/10/20 10:12:33;;;;;;;16.35;5.18;;;;;;;;;;5007142;28;20536;-45
2022/10/20 10:15:02;;;;;;;18.80;6.05;;;;;;;;;;5004785;28;20088;-45
2022/10/20 10:17:39;;;;;;;25.33;5.75;;;;;;;;;;5005079;28;20419;-46
2022/10/20 10:20:11;;;;;;;29.27;6.45;;;;;;;;;;5002789;28;20037;-44
2022/10/20 10:22:37;;;;;;;19.23;5.63;;;;;;;;;;5008580;28;20038;-44
2022/10/20 10:25:04;;;;;;;19.73;5.97;;;;;;;;;;5004624;28;20075;-45
2022/10/20 10:27:33;;;;;;;26.27;6.10;;;;;;;;;;5004800;28;20050;-46
2022/10/20 10:30:26;;;;;;;24.40;5.95;;;;;;;;;;5008086;28;20416;-46
2022/10/20 10:32:52;;;;;;;20.55;5.90;;;;;;;;;;5008483;28;20050;-46
2022/10/20 10:35:24;;;;;;;27.75;6.90;;;;;;;;;;5008054;28;20441;-44
2022/10/20 10:37:51;;;;;;;26.60;6.13;;;;;;;;;;5008639;28;20515;-45
2022/10/20 10:40:32;;;;;;;23.63;6.78;;;;;;;;;;5009979;28;20038;-44
2022/10/20 10:43:28;;;;;;;29.33;6.20;;;;;;;;;;5002384;28;20530;-44
2022/10/20 10:46:02;;;;;;;23.67;5.40;;;;;;;;;;5004812;28;20034;-45
2022/10/20 10:49:04;;;;;;;26.48;5.82;;;;;;;;;;5006549;28;20390;-44
2022/10/20 10:51:53;;;;;;;28.48;6.20;;;;;;;;;;5006019;28;20042;-44
2022/10/20 10:54:43;;;;;;;17.33;5.45;;;;;;;;;;5008221;28;20172;-44
2022/10/20 10:57:19;;;;;;;21.67;5.97;;;;;;;;;;5003008;28;20088;-44
2022/10/20 10:59:48;;;;;;;19.80;5.97;;;;;;;;;;5007580;28;20139;-44
2022/10/20 11:02:34;;;;;;;26.10;5.65;;;;;;;;;;5003695;28;20072;-44
2022/10/20 11:05:11;;;;;;;20.88;5.60;;;;;;;;;;5002131;28;20030;-44
2022/10/20 11:07:46;;;;;;;21.20;5.35;;;;;;;;;;5002986;28;20494;-44
2022/10/20 11:10:23;;;;;;;16.88;5.75;;;;;;;;;;5006209;28;20049;-45
2022/10/20 11:13:00;;;;;;;21.05;6.25;;;;;;;;;;5012483;28;20506;-44
2022/10/20 11:15:35;;;;;;;27.25;6.32;;;;;;;;;;5006268;28;20044;-44
2022/10/20 11:18:29;;;;;;;20.35;6.97;;;;;;;;;;5005447;28;20034;-47
2022/10/20 11:20:54;;;;;;;17.85;5.45;;;;;;;;;;5001226;28;20034;-43
2022/10/20 11:23:25;;;;;;;22.27;5.18;;;;;;;;;;5003117;28;20036;-44
2022/10/20 11:26:12;;;;;;;23.93;6.00;;;;;;;;;;5004507;28;20117;-45
2022/10/20 11:28:51;;;;;;;22.05;6.53;;;;;;;;;;5009088;28;20037;-46
2022/10/20 11:31:29;;;;;;;14.60;5.25;;;;;;;;;;5008493;28;20124;-43
2022/10/20 11:34:19;;;;;;;15.80;5.60;;;;;;;;;;5006165;28;20033;-44
2022/10/20 11:37:11;;;;;;;29.48;5.68;;;;;;;;;;5004804;28;20046;-44
2022/10/20 11:39:43;;;;;;;26.65;5.72;;;;;;;;;;5001458;28;20045;-45
2022/10/20 11:42:14;;;;;;;;;;;;;;;;;;5005714;28;20053;-44
2022/10/20 11:44:40;;;;;;;21.63;5.45;;;;;;;;;;5007671;28;19917;-43
2022/10/20 11:47:15;;;;;;;22.15;5.47;;;;;;;;;;5008306;28;20562;-43
2022/10/20 11:49:40;;;;;;;41.45;6.30;;;;;;;;;;5004060;28;20026;-44
2022/10/20 11:52:37;;;;;;;21.23;5.60;;;;;;;;;;5006738;28;20045;-44
2022/10/20 11:55:05;;;;;;;22.83;5.50;;;;;;;;;;5004726;28;20044;-46
2022/10/20 11:57:52;;;;;;;20.77;6.00;;;;;;;;;;5004845;28;20088;-44
2022/10/20 12:00:40;;;;;;;18.95;6.38;;;;;;;;;;5007928;28;20062;-44
2022/10/20 12:03:37;;;;;;;17.15;6.00;;;;;;;;;;5007371;28;20056;-43
2022/10/20 12:06:26;;;;;;;19.08;6.10;;;;;;;;;;5005911;28;20060;-43
2022/10/20 12:09:12;;;;;;;21.48;6.10;;;;;;;;;;5003241;28;20034;-49
2022/10/20 12:12:08;;;;;;;20.42;5.60;;;;;;;;;;4997692;28;20495;-44
2022/10/20 12:14:48;;;;;;;18.80;5.53;;;;;;;;;;5005958;28;20029;-43
2022/10/20 12:17:34;;;;;;;27.33;6.35;;;;;;;;;;5006446;28;20117;-44
2022/10/20 12:20:35;;;;;;;23.55;6.20;;;;;;;;;;5005773;28;20474;-46
2022/10/20 12:23:01;;;;;;;21.30;5.78;;;;;;;;;;4927010;29;20428;-43
2022/10/20 12:25:29;;;;;;;21.58;6.15;;;;;;;;;;4928949;29;20544;-43
2022/10/20 12:28:21;;;;;;;21.33;5.40;;;;;;;;;;4926714;29;20527;-44
2022/10/20 12:31:04;;;;;;;13.60;4.97;;;;;;;;;;4929580;29;20043;-45
2022/10/20 12:33:50;;;;;;;15.30;5.68;;;;;;;;;;4926846;29;20079;-45
2022/10/20 12:36:16;;;;;;;26.35;5.88;;;;;;;;;;4927410;29;20126;-45
2022/10/20 12:38:44;;;;;;;24.40;5.43;;;;;;;;;;4927807;29;20541;-47
2022/10/20 12:41:23;;;;;;;25.02;5.07;;;;;;;;;;4927413;29;20118;-43
2022/10/20 12:43:52;;;;;;;20.23;5.22;;;;;;;;;;4923243;29;20051;-44
2022/10/20 12:46:22;;;;;;;33.13;6.18;;;;;;;;;;4925854;28;20119;-43
2022/10/20 12:48:55;;;;;;;26.52;5.68;;;;;;;;;;4928431;29;20111;-43
2022/10/20 12:51:28;;;;;;;23.25;5.68;;;;;;;;;;4927288;29;20052;-47
2022/10/20 12:53:59;;;;;;;20.00;6.18;;;;;;;;;;4928591;29;20054;-46
2022/10/20 12:56:32;;;;;;;28.45;6.20;;;;;;;;;;4927287;29;20099;-44
2022/10/20 12:59:07;;;;;;;21.58;5.13;;;;;;;;;;4978755;28;20053;-43
2022/10/20 13:02:07;;;;;;;20.38;5.85;;;;;;;;;;5000816;28;20105;-44
2022/10/20 13:05:06;;;;;;;21.60;5.43;;;;;;;;;;5003909;28;20495;-43
2022/10/20 13:07:47;;;;;;;20.25;5.45;;;;;;;;;;5037042;28;20098;-43
2022/10/20 13:10:35;;;;;;;19.88;5.55;;;;;;;;;;5007321;28;20030;-45
2022/10/20 13:13:00;;;;;;;15.48;4.90;;;;;;;;;;5002571;28;20037;-48
2022/10/20 13:15:41;;;;;;;30.20;7.13;;;;;;;;;;5008030;28;20083;-46
2022/10/20 13:18:14;;;;;;;16.40;5.68;;;;;;;;;;5020401;28;20523;-43
2022/10/20 13:21:18;;;;;;;23.73;5.85;;;;;;;;;;5002709;28;20033;-44
2022/10/20 13:23:52;;;;;;;12.23;4.75;;;;;;;;;;5003915;28;20038;-43
2022/10/20 13:26:21;;;;;;;22.60;5.38;;;;;;;;;;5011357;28;20040;-44
2022/10/20 13:28:48;;;;;;;29.50;5.47;;;;;;;;;;5006990;28;20051;-45
2022/10/20 13:31:28;;;;;;;14.27;5.40;;;;;;;;;;5011157;28;20680;-44
2022/10/20 13:34:19;;;;;;;19.20;5.60;;;;;;;;;;5006540;28;20038;-44
2022/10/20 13:37:02;;;;;;;18.33;5.50;;;;;;;;;;5007771;28;20069;-44
2022/10/20 13:39:40;;;;;;;19.10;5.93;;;;;;;;;;5008701;28;20061;-44
2022/10/20 13:42:23;;;;;;;24.08;5.35;;;;;;;;;;5009443;28;20528;-45
2022/10/20 13:45:34;;;;;;;19.33;5.55;;;;;;;;;;5010334;28;20036;-44
2022/10/20 13:48:32;;;;;;;12.30;4.97;;;;;;;;;;4977972;28;20065;-44
2022/10/20 13:51:04;;;;;;;18.15;5.18;;;;;;;;;;4921838;29;20148;-48
2022/10/20 13:53:35;;;;;;;19.67;5.07;;;;;;;;;;4921456;29;20047;-44
2022/10/20 13:56:04;;;;;;;19.10;5.95;;;;;;;;;;4921162;29;20040;-44
2022/10/20 13:58:30;;;;;;;26.90;5.85;;;;;;;;;;4923771;29;20160;-44
2022/10/20 14:01:00;;;;;;;17.13;5.53;;;;;;;;;;4921451;29;20118;-43
2022/10/20 14:03:26;;;;;;;19.23;5.47;;;;;;;;;;4923318;29;20097;-46
2022/10/20 14:05:53;;;;;;;22.95;5.57;;;;;;;;;;4924442;29;20444;-47
2022/10/20 14:08:19;;;;;;;22.83;5.97;;;;;;;;;;4914641;29;20040;-45
2022/10/20 14:10:51;;;;;;;17.52;5.82;;;;;;;;;;4923866;29;20068;-47
2022/10/20 14:13:19;;;;;;;28.27;6.07;;;;;;;;;;4919351;29;20048;-45
2022/10/20 14:15:48;;;;;;;23.60;5.28;;;;;;;;;;4919293;29;20055;-47
2022/10/20 14:18:24;;;;;;;20.85;6.05;;;;;;;;;;4919080;29;20063;-45
2022/10/20 14:20:55;;;;;;;19.98;5.50;;;;;;;;;;4914417;29;20052;-45
2022/10/20 14:23:23;;;;;;;24.83;5.57;;;;;;;;;;4915728;29;20111;-45
2022/10/20 14:25:49;;;;;;;18.40;6.13;;;;;;;;;;4911685;29;20102;-47
2022/10/20 14:28:19;;;;;;;23.77;5.85;;;;;;;;;;4970114;28;20042;-46
2022/10/20 14:30:50;;;;;;;17.17;5.28;;;;;;;;;;5008919;28;20044;-44
2022/10/20 14:33:16;;;;;;;25.90;6.03;;;;;;;;;;5004060;28;20049;-47
2022/10/20 14:35:49;;;;;;;20.02;5.50;;;;;;;;;;5004982;28;20026;-44
2022/10/20 14:38:18;;;;;;;15.73;6.50;;;;;;;;;;5006460;28;20132;-44
2022/10/20 14:40:52;;;;;;;15.10;5.40;;;;;;;;;;5004910;28;20142;-44
2022/10/20 14:43:34;;;;;;;21.42;5.38;;;;;;;;;;5006240;28;20095;-44
2022/10/20 14:46:02;;;;;;;20.80;5.40;;;;;;;;;;5004428;28;20026;-47
2022/10/20 14:48:34;;;;;;;18.35;4.88;;;;;;;;;;5004119;28;20521;-45
2022/10/20 14:50:59;;;;;;;21.85;5.10;;;;;;;;;;5003979;28;20026;-46
2022/10/20 14:53:30;;;;;;;26.13;5.30;;;;;;;;;;5007825;28;20038;-45